Terminal Aerodrome Forecast
Issued by NWS

Home | Current Version | Previous Version | Text Only | Print | Product List | Glossary On
Versions: 1 2 3 4 5 6 7 8 9 10 11 12 13 14 15 16 17 18 19 20 21 22 23 24 25 26 27 28
000
FTUS41 KALY 232327
TAFPSF
TAF
KPSF 232327Z 2400/2424 VRB03KT 5SM -RA BR OVC008
      TEMPO 2400/2403 2SM -RA BR OVC004
     FM240300 21007KT P6SM BKN008 OVC015
     FM240800 28010KT P6SM BKN015 OVC025
     FM241400 30012G18KT P6SM BKN025
     FM242200 31006KT P6SM SCT025 BKN120=

USA.gov is the U.S. government's official web portal to all federal, state and local government web resources and services.